createdAt,value
2019-02-14T00:01:31.625Z,11.07
2019-02-14T00:04:03.723Z,12.47
2019-02-14T00:06:35.232Z,14.27
2019-02-14T00:09:06.869Z,12.03
2019-02-14T00:11:35.929Z,13.37
2019-02-14T00:14:05.462Z,13.40
2019-02-14T00:16:34.601Z,10.57
2019-02-14T00:19:04.513Z,16.50
2019-02-14T00:21:38.542Z,14.37
2019-02-14T00:24:07.741Z,10.50
2019-02-14T00:26:37.656Z,13.07
2019-02-14T00:29:06.777Z,11.33
2019-02-14T00:31:35.897Z,12.40
2019-02-14T00:34:05.441Z,12.17
2019-02-14T00:36:38.299Z,13.87
2019-02-14T00:39:08.945Z,10.40
2019-02-14T00:41:38.120Z,10.10
2019-02-14T00:44:08.465Z,14.27
2019-02-14T00:46:38.777Z,11.27
2019-02-14T00:49:09.601Z,14.47
2019-02-14T00:51:41.435Z,12.00
2019-02-14T00:54:12.685Z,13.67
2019-02-14T00:56:41.472Z,11.53
2019-02-14T00:59:10.603Z,10.90
2019-02-14T01:01:39.942Z,10.30
2019-02-14T01:04:09.673Z,14.03
2019-02-14T01:06:42.227Z,9.97
2019-02-14T01:09:13.023Z,11.20
2019-02-14T01:11:42.204Z,12.93
2019-02-14T01:14:11.406Z,10.87
2019-02-14T01:16:42.403Z,13.80
2019-02-14T01:19:11.513Z,11.43
2019-02-14T01:21:43.162Z,17.87
2019-02-14T01:24:12.255Z,9.33
2019-02-14T01:26:43.043Z,13.53
2019-02-14T01:29:15.048Z,11.60
2019-02-14T01:31:48.899Z,13.97
2019-02-14T01:34:22.098Z,9.90
2019-02-14T01:36:51.253Z,11.20
2019-02-14T01:39:24.890Z,10.63
2019-02-14T01:41:55.113Z,13.63
2019-02-14T01:44:26.685Z,11.90
2019-02-14T01:46:56.987Z,11.40
2019-02-14T01:49:26.682Z,12.77
2019-02-14T01:51:56.233Z,14.70
2019-02-14T01:54:27.019Z,8.63
2019-02-14T01:56:56.216Z,12.83
2019-02-14T01:59:25.768Z,7.70
2019-02-14T02:01:57.754Z,12.53
2019-02-14T02:04:34.153Z,12.23
2019-02-14T02:07:05.471Z,8.87
2019-02-14T02:09:34.518Z,11.73
2019-02-14T02:12:04.877Z,10.80
2019-02-14T02:14:35.792Z,10.80
2019-02-14T02:17:07.845Z,9.90
2019-02-14T02:19:36.978Z,11.93
2019-02-14T02:22:07.848Z,9.77
2019-02-14T02:24:39.886Z,12.20
2019-02-14T02:27:10.239Z,10.33
2019-02-14T02:29:41.838Z,12.53
2019-02-14T02:32:11.039Z,8.23
2019-02-14T02:34:42.796Z,8.67
2019-02-14T02:37:12.975Z,8.43
2019-02-14T02:39:42.071Z,8.43
2019-02-14T02:42:11.314Z,8.77
2019-02-14T02:44:44.606Z,14.23
2019-02-14T02:47:19.230Z,6.53
2019-02-14T02:49:49.132Z,12.80
2019-02-14T02:52:21.378Z,9.90
2019-02-14T02:54:51.570Z,9.20
2019-02-14T02:57:23.006Z,13.43
2019-02-14T02:59:56.203Z,9.93
2019-02-14T03:02:27.855Z,9.87
2019-02-14T03:04:58.086Z,9.77
2019-02-14T03:07:30.596Z,13.73
2019-02-14T03:10:02.528Z,13.07
2019-02-14T03:12:36.920Z,12.87
2019-02-14T03:15:07.929Z,12.03
2019-02-14T03:17:37.039Z,10.73
2019-02-14T03:20:08.202Z,8.27
2019-02-14T03:22:38.268Z,11.20
2019-02-14T03:25:13.745Z,10.97
2019-02-14T03:27:43.258Z,14.40
2019-02-14T03:30:18.329Z,13.83
2019-02-14T03:32:48.790Z,10.37
2019-02-14T03:35:18.729Z,15.60
2019-02-14T03:37:54.481Z,10.93
2019-02-14T03:40:26.451Z,9.57
2019-02-14T03:42:55.606Z,14.87
2019-02-14T03:45:27.693Z,9.30
2019-02-14T03:47:57.168Z,8.30
2019-02-14T03:50:32.114Z,10.47
2019-02-14T03:53:08.824Z,9.20
2019-02-14T03:55:41.448Z,12.10
2019-02-14T03:58:12.939Z,9.93
2019-02-14T04:00:42.107Z,12.33
2019-02-14T04:03:15.577Z,14.73
2019-02-14T04:05:47.583Z,10.97
2019-02-14T04:08:19.273Z,8.90
2019-02-14T04:10:50.200Z,8.93
2019-02-14T04:13:19.341Z,9.97
2019-02-14T04:15:49.428Z,10.23
2019-02-14T04:18:20.803Z,9.80
2019-02-14T04:20:49.474Z,8.00
2019-02-14T04:23:18.598Z,16.47
2019-02-14T04:25:48.078Z,10.17
2019-02-14T04:28:17.202Z,10.77
2019-02-14T04:30:51.177Z,8.03
2019-02-14T04:33:26.787Z,11.47
2019-02-14T04:35:58.643Z,8.30
2019-02-14T04:38:33.002Z,11.30
2019-02-14T04:41:03.830Z,8.37
2019-02-14T04:43:33.027Z,10.23
2019-02-14T04:46:02.495Z,9.17
2019-02-14T04:48:41.774Z,11.63
2019-02-14T04:51:13.278Z,13.07
2019-02-14T04:53:42.384Z,12.13
2019-02-14T04:56:11.801Z,9.80
2019-02-14T04:58:43.310Z,8.00
2019-02-14T05:01:18.536Z,13.03
2019-02-14T05:03:49.065Z,11.17
2019-02-14T05:06:21.900Z,10.87
2019-02-14T05:08:54.591Z,8.93
2019-02-14T05:11:23.739Z,10.13
2019-02-14T05:13:52.881Z,11.77
2019-02-14T05:16:23.266Z,11.40
2019-02-14T05:18:56.048Z,13.70
2019-02-14T05:21:25.084Z,11.97
2019-02-14T05:23:55.020Z,8.97
2019-02-14T05:26:24.165Z,8.73
2019-02-14T05:28:53.417Z,10.70
2019-02-14T05:31:22.598Z,8.87
2019-02-14T05:33:57.120Z,10.40
2019-02-14T05:36:26.441Z,12.83
2019-02-14T05:38:56.935Z,11.17
2019-02-14T05:41:26.551Z,14.10
2019-02-14T05:43:57.173Z,10.50
2019-02-14T05:46:26.744Z,17.80
2019-02-14T05:48:56.653Z,9.47
2019-02-14T05:51:26.237Z,13.37
2019-02-14T05:53:55.710Z,11.47
2019-02-14T05:56:25.186Z,13.87
2019-02-14T05:58:59.777Z,11.30
2019-02-14T06:01:29.200Z,15.63
2019-02-14T06:03:58.444Z,11.90
2019-02-14T06:06:29.159Z,15.60
2019-02-14T06:08:59.642Z,14.07
2019-02-14T06:11:29.997Z,12.97
2019-02-14T06:14:00.474Z,13.30
2019-02-14T06:16:30.120Z,12.37
2019-02-14T06:19:00.988Z,12.63
2019-02-14T06:21:30.454Z,13.73
2019-02-14T06:23:59.772Z,19.10
2019-02-14T06:26:34.998Z,10.37
2019-02-14T06:29:04.462Z,9.60
2019-02-14T06:31:34.848Z,11.87
2019-02-14T06:34:05.255Z,10.70
2019-02-14T06:36:34.920Z,14.83
2019-02-14T06:39:05.717Z,14.60
2019-02-14T06:41:37.461Z,8.97
2019-02-14T06:44:09.559Z,12.40
2019-02-14T06:46:40.178Z,9.80
2019-02-14T06:49:11.255Z,9.33
2019-02-14T06:51:40.600Z,10.63
2019-02-14T06:54:09.775Z,9.10
2019-02-14T06:56:41.819Z,13.83
2019-02-14T06:59:10.992Z,13.23
2019-02-14T07:01:42.533Z,11.37
2019-02-14T07:04:16.672Z,10.23
2019-02-14T07:06:46.144Z,10.47
2019-02-14T07:09:20.906Z,12.97
2019-02-14T07:11:51.797Z,16.20
2019-02-14T07:14:23.105Z,10.77
2019-02-14T07:16:53.100Z,17.33
2019-02-14T07:19:23.885Z,13.07
2019-02-14T07:21:58.986Z,12.57
2019-02-14T07:24:28.151Z,13.50
2019-02-14T07:26:59.183Z,12.67
2019-02-14T07:29:28.560Z,16.17
2019-02-14T07:32:05.492Z,11.07
2019-02-14T07:34:34.602Z,13.93
2019-02-14T07:37:13.439Z,9.10
2019-02-14T07:39:42.566Z,10.90
2019-02-14T07:42:13.063Z,10.67
2019-02-14T07:44:42.506Z,13.70
2019-02-14T07:47:13.043Z,11.47
2019-02-14T07:49:45.429Z,13.40
2019-02-14T07:52:14.660Z,11.30
2019-02-14T07:54:43.789Z,16.57
2019-02-14T07:57:13.242Z,12.90
2019-02-14T07:59:43.160Z,10.40
2019-02-14T08:02:13.936Z,18.70
2019-02-14T08:04:43.297Z,16.50
2019-02-14T08:07:12.407Z,14.30
2019-02-14T08:09:41.557Z,12.50
2019-02-14T08:12:12.058Z,8.63
2019-02-14T08:14:45.984Z,10.77
2019-02-14T08:17:19.910Z,12.83
2019-02-14T08:19:54.578Z,12.30
2019-02-14T08:22:24.200Z,13.17
2019-02-14T08:24:56.314Z,9.93
2019-02-14T08:27:28.135Z,11.83
2019-02-14T08:30:00.700Z,10.20
2019-02-14T08:32:29.869Z,16.03
2019-02-14T08:35:01.030Z,13.10
2019-02-14T08:37:30.126Z,12.00
2019-02-14T08:39:59.246Z,12.27
2019-02-14T08:42:28.827Z,11.90
2019-02-14T08:44:58.088Z,12.63
2019-02-14T08:47:27.209Z,11.10
2019-02-14T08:49:56.340Z,15.10
2019-02-14T08:52:26.714Z,12.10
2019-02-14T08:55:01.206Z,13.67
2019-02-14T08:57:33.165Z,12.47
2019-02-14T09:00:07.568Z,13.20
2019-02-14T09:02:37.018Z,13.57
2019-02-14T09:05:12.119Z,16.43
2019-02-14T09:07:41.457Z,10.00
2019-02-14T09:10:12.458Z,10.17
2019-02-14T09:12:41.597Z,9.77
2019-02-14T09:15:11.640Z,11.60
2019-02-14T09:17:47.808Z,12.73
2019-02-14T09:20:23.242Z,13.47
2019-02-14T09:22:53.494Z,11.80
2019-02-14T09:25:23.045Z,12.67
2019-02-14T09:27:52.298Z,10.20
2019-02-14T09:30:23.978Z,12.10
2019-02-14T09:32:56.196Z,10.60
2019-02-14T09:35:27.146Z,16.33
2019-02-14T09:38:03.052Z,13.00
2019-02-14T09:40:40.049Z,12.13
2019-02-14T09:43:16.771Z,15.60
2019-02-14T09:45:47.658Z,10.17
2019-02-14T09:48:22.843Z,12.77
2019-02-14T09:50:53.243Z,15.30
2019-02-14T09:53:26.905Z,12.00
2019-02-14T09:56:06.373Z,15.47
2019-02-14T09:58:33.032Z,12.53
2019-02-14T10:01:24.364Z,13.37
2019-02-14T10:03:39.109Z,15.17
2019-02-14T10:06:08.307Z,9.57
2019-02-14T10:08:39.073Z,12.70
2019-02-14T10:11:14.502Z,11.20
2019-02-14T10:13:43.791Z,12.50
2019-02-14T10:16:13.935Z,9.27
2019-02-14T10:18:52.262Z,9.97
2019-02-14T10:21:24.331Z,14.23
2019-02-14T10:23:53.689Z,11.47
2019-02-14T10:26:24.013Z,13.47
2019-02-14T10:28:57.284Z,13.20
2019-02-14T10:31:31.346Z,21.97
2019-02-14T10:34:06.875Z,10.17
2019-02-14T10:36:37.157Z,10.53
2019-02-14T10:39:07.994Z,13.10
2019-02-14T10:41:37.230Z,8.87
2019-02-14T10:44:07.107Z,9.60
2019-02-14T10:46:36.474Z,9.07
2019-02-14T10:49:06.498Z,11.40
2019-02-14T10:51:35.796Z,8.43
2019-02-14T10:54:08.627Z,11.40
2019-02-14T10:56:38.852Z,10.03
2019-02-14T10:59:10.629Z,10.77
2019-02-14T11:01:43.525Z,10.07
2019-02-14T11:04:12.897Z,12.03
2019-02-14T11:06:42.672Z,6.50
2019-02-14T11:09:13.184Z,10.03
2019-02-14T11:11:46.301Z,8.33
2019-02-14T11:14:17.976Z,6.67
2019-02-14T11:16:47.377Z,9.93
2019-02-14T11:19:19.703Z,11.57
2019-02-14T11:21:58.024Z,13.20
2019-02-14T11:24:27.475Z,9.33
2019-02-14T11:27:03.149Z,9.70
2019-02-14T11:29:35.437Z,12.43
2019-02-14T11:32:05.255Z,11.13
2019-02-14T11:34:39.314Z,13.10
2019-02-14T11:37:13.160Z,7.97
2019-02-14T11:39:45.799Z,9.50
2019-02-14T11:42:19.135Z,11.43
2019-02-14T11:44:51.880Z,11.50
2019-02-14T11:47:20.995Z,10.00
2019-02-14T11:49:52.263Z,10.77
2019-02-14T11:52:21.708Z,9.40
2019-02-14T11:54:51.126Z,13.00
2019-02-14T11:57:22.643Z,13.87
2019-02-14T11:59:56.563Z,10.20
2019-02-14T12:02:29.437Z,11.80
2019-02-14T12:05:06.562Z,11.60
2019-02-14T12:07:35.749Z,11.03
2019-02-14T12:10:15.889Z,11.93
2019-02-14T12:12:47.001Z,9.53
2019-02-14T12:15:16.774Z,7.43
2019-02-14T12:17:45.935Z,13.00
2019-02-14T12:20:16.981Z,14.93
2019-02-14T12:22:49.966Z,11.67
2019-02-14T12:25:19.160Z,12.37
2019-02-14T12:27:48.818Z,10.00
2019-02-14T12:30:19.367Z,12.97
2019-02-14T12:32:51.155Z,9.80
2019-02-14T12:35:21.657Z,15.43
2019-02-14T12:37:54.066Z,13.60
2019-02-14T12:40:23.539Z,13.93
2019-02-14T12:42:56.949Z,13.60
2019-02-14T12:45:26.326Z,16.13
2019-02-14T12:47:58.622Z,13.73
2019-02-14T12:50:27.785Z,12.97
2019-02-14T12:53:02.668Z,10.90
2019-02-14T12:55:32.944Z,9.33
2019-02-14T12:58:02.248Z,14.80
2019-02-14T13:00:32.081Z,12.73
2019-02-14T13:03:01.363Z,18.40
2019-02-14T13:05:32.950Z,13.00
2019-02-14T13:08:04.064Z,9.50
2019-02-14T13:10:33.256Z,14.50
2019-02-14T13:13:04.952Z,12.00
2019-02-14T13:15:34.114Z,13.30
2019-02-14T13:18:04.349Z,15.00
2019-02-14T13:20:33.533Z,12.87
2019-02-14T13:23:02.830Z,9.03
2019-02-14T13:25:32.494Z,9.20
2019-02-14T13:28:01.930Z,8.73
2019-02-14T13:30:33.577Z,6.73
2019-02-14T13:33:02.795Z,8.77
2019-02-14T13:35:33.735Z,6.60
2019-02-14T13:38:05.482Z,9.50
2019-02-14T13:40:34.771Z,7.47
2019-02-14T13:43:07.362Z,20.00
2019-02-14T13:45:41.444Z,7.50
2019-02-14T13:48:13.711Z,7.90
2019-02-14T13:50:42.903Z,13.93
2019-02-14T13:53:12.106Z,14.33
2019-02-14T13:55:57.154Z,11.77
2019-02-14T13:58:26.298Z,10.43
2019-02-14T14:01:03.291Z,19.63
2019-02-14T14:03:34.901Z,13.40
2019-02-14T14:06:08.563Z,19.57
2019-02-14T14:08:41.985Z,10.80
2019-02-14T14:11:16.823Z,10.40
2019-02-14T14:13:54.496Z,11.93
2019-02-14T14:16:26.760Z,13.43
2019-02-14T14:19:05.936Z,9.03
2019-02-14T14:21:30.629Z,8.77
2019-02-14T14:24:00.142Z,11.83
2019-02-14T14:26:34.471Z,17.77
2019-02-14T14:29:13.528Z,19.10
2019-02-14T14:31:43.171Z,15.80
2019-02-14T14:34:14.016Z,13.63
2019-02-14T14:36:50.391Z,11.40
2019-02-14T14:39:26.311Z,14.80
2019-02-14T14:41:56.486Z,15.83
2019-02-14T14:44:41.934Z,12.83
2019-02-14T14:47:17.545Z,13.10
2019-02-14T14:49:48.725Z,10.50
2019-02-14T14:52:20.937Z,9.37
2019-02-14T14:54:53.102Z,8.07
2019-02-14T14:57:22.351Z,10.60
2019-02-14T14:59:55.993Z,7.57
2019-02-14T15:02:25.749Z,8.87
2019-02-14T15:04:55.476Z,9.67
2019-02-14T15:07:24.585Z,13.17
2019-02-14T15:09:57.505Z,10.50
2019-02-14T15:12:26.312Z,9.80
2019-02-14T15:14:56.002Z,10.23
2019-02-14T15:17:26.432Z,10.70
2019-02-14T15:19:58.018Z,14.20
2019-02-14T15:22:27.183Z,11.83
2019-02-14T15:24:57.620Z,17.10
2019-02-14T15:27:26.752Z,15.73
2019-02-14T15:29:57.431Z,16.83
2019-02-14T15:32:26.637Z,14.03
2019-02-14T15:34:55.898Z,10.37
2019-02-14T15:37:30.728Z,10.40
2019-02-14T15:40:08.710Z,11.07
2019-02-14T15:42:31.546Z,14.33
2019-02-14T15:45:00.705Z,10.97
2019-02-14T15:47:31.713Z,12.23
2019-02-14T15:50:03.874Z,10.67
2019-02-14T15:52:34.870Z,9.40
2019-02-14T15:55:04.025Z,12.77
2019-02-14T15:57:34.454Z,11.70
2019-02-14T16:00:10.716Z,11.70
2019-02-14T16:02:40.151Z,12.40
2019-02-14T16:05:10.670Z,10.93
2019-02-14T16:07:41.462Z,13.97
2019-02-14T16:10:18.165Z,13.70
2019-02-14T16:12:43.989Z,10.70
2019-02-14T16:15:15.454Z,13.10
2019-02-14T16:17:44.609Z,11.47
2019-02-14T16:20:17.521Z,19.93
2019-02-14T16:22:50.694Z,21.37
2019-02-14T16:25:20.199Z,17.60
2019-02-14T16:27:51.882Z,12.83
2019-02-14T16:30:21.042Z,9.90
2019-02-14T16:32:50.271Z,15.17
2019-02-14T16:35:20.983Z,20.93
2019-02-14T16:37:52.000Z,14.20
2019-02-14T16:40:27.820Z,15.10
2019-02-14T16:42:53.642Z,14.07
2019-02-14T16:45:26.945Z,12.70
2019-02-14T16:47:59.263Z,14.03
2019-02-14T16:50:29.425Z,15.97
2019-02-14T16:52:59.137Z,16.57
2019-02-14T16:55:29.634Z,18.27
2019-02-14T16:57:59.030Z,18.90
2019-02-14T17:00:33.313Z,13.90
2019-02-14T17:03:05.177Z,17.57
2019-02-14T17:05:54.660Z,15.97
2019-02-14T17:08:24.016Z,12.13
2019-02-14T17:10:56.781Z,14.63
2019-02-14T17:13:25.914Z,14.23
2019-02-14T17:15:55.062Z,12.43
2019-02-14T17:18:25.514Z,13.27
2019-02-14T17:20:54.599Z,13.73
2019-02-14T17:23:25.907Z,18.90
2019-02-14T17:26:08.270Z,15.50
2019-02-14T17:28:37.816Z,13.27
2019-02-14T17:31:08.061Z,13.80
2019-02-14T17:33:46.430Z,16.13
2019-02-14T17:36:15.733Z,11.90
2019-02-14T17:38:44.866Z,14.53
2019-02-14T17:41:14.325Z,13.70
2019-02-14T17:43:43.566Z,18.30
2019-02-14T17:46:12.935Z,17.33
2019-02-14T17:48:46.137Z,17.50
2019-02-14T17:51:22.541Z,17.17
2019-02-14T17:53:58.888Z,14.43
2019-02-14T17:56:28.408Z,25.70
2019-02-14T17:58:58.819Z,17.20
2019-02-14T18:01:28.060Z,19.73
2019-02-14T18:03:58.498Z,18.90
2019-02-14T18:06:29.705Z,14.70
2019-02-14T18:09:04.683Z,26.03
2019-02-14T18:11:34.120Z,33.43
2019-02-14T18:14:06.392Z,26.97
2019-02-14T18:16:35.531Z,26.77
2019-02-14T18:19:16.532Z,28.40
2019-02-14T18:21:45.722Z,18.60
2019-02-14T18:24:16.333Z,20.60
2019-02-14T18:26:51.605Z,32.80
2019-02-14T18:29:20.889Z,31.77
2019-02-14T18:31:51.321Z,29.90
2019-02-14T18:34:20.412Z,28.93
2019-02-14T18:36:49.996Z,30.00
2019-02-14T18:39:19.138Z,32.37
2019-02-14T18:41:48.312Z,33.27
2019-02-14T18:44:17.749Z,30.27
2019-02-14T18:46:47.933Z,30.60
2019-02-14T18:49:17.412Z,25.77
2019-02-14T18:51:46.603Z,24.37
2019-02-14T18:54:15.918Z,27.17
2019-02-14T18:56:47.604Z,22.27
2019-02-14T18:59:19.181Z,25.33
2019-02-14T19:01:48.421Z,26.03
2019-02-14T19:04:22.975Z,22.40
2019-02-14T19:06:56.520Z,22.17
2019-02-14T19:09:30.834Z,26.77
2019-02-14T19:12:00.007Z,25.90
2019-02-14T19:14:29.420Z,22.50
2019-02-14T19:17:01.268Z,19.70
2019-02-14T19:19:31.419Z,26.30
2019-02-14T19:22:05.531Z,21.40
2019-02-14T19:24:39.136Z,19.73
2019-02-14T19:27:08.289Z,15.67
2019-02-14T19:29:37.395Z,18.73
2019-02-14T19:32:07.831Z,21.33
2019-02-14T19:34:36.995Z,19.63
2019-02-14T19:37:12.869Z,14.90
2019-02-14T19:39:43.648Z,15.47
2019-02-14T19:42:14.714Z,17.10
2019-02-14T19:44:45.189Z,27.23
2019-02-14T19:47:14.757Z,21.90
2019-02-14T19:49:43.905Z,18.70
2019-02-14T19:52:13.240Z,23.10
2019-02-14T19:54:42.727Z,21.67
2019-02-14T19:57:12.014Z,35.93
2019-02-14T19:59:41.130Z,59.77
2019-02-14T20:02:10.326Z,77.43
2019-02-14T20:04:39.424Z,43.00
2019-02-14T20:07:13.020Z,53.77
2019-02-14T20:09:49.711Z,43.20
2019-02-14T20:12:20.879Z,36.37
2019-02-14T20:14:53.830Z,45.73
2019-02-14T20:17:22.970Z,51.97
2019-02-14T20:19:53.842Z,44.87
2019-02-14T20:22:23.082Z,39.77
2019-02-14T20:24:54.537Z,42.37
2019-02-14T20:27:26.685Z,45.23
2019-02-14T20:29:55.854Z,39.87
2019-02-14T20:32:26.274Z,28.70
2019-02-14T20:34:55.464Z,49.40
2019-02-14T20:37:27.806Z,34.93
2019-02-14T20:39:57.094Z,32.27
2019-02-14T20:42:26.221Z,28.53
2019-02-14T20:44:57.097Z,25.60
2019-02-14T20:47:28.321Z,20.47
2019-02-14T20:49:57.465Z,23.00
2019-02-14T20:52:28.977Z,25.20
2019-02-14T20:54:58.209Z,28.80
2019-02-14T20:57:32.554Z,29.57
2019-02-14T21:00:04.290Z,33.63
2019-02-14T21:02:44.070Z,30.83
2019-02-14T21:05:14.961Z,32.27
2019-02-14T21:07:52.130Z,24.97
2019-02-14T21:10:24.759Z,24.77
2019-02-14T21:12:53.902Z,21.83
2019-02-14T21:15:23.340Z,29.00
2019-02-14T21:17:53.286Z,22.70
2019-02-14T21:20:24.062Z,30.53
2019-02-14T21:22:53.207Z,27.57
2019-02-14T21:25:23.921Z,27.90
2019-02-14T21:27:54.247Z,31.70
2019-02-14T21:30:25.195Z,32.37
2019-02-14T21:32:57.244Z,28.37
2019-02-14T21:35:26.445Z,23.63
2019-02-14T21:37:55.565Z,25.73
2019-02-14T21:40:26.563Z,23.57
2019-02-14T21:42:55.632Z,19.30
2019-02-14T21:45:24.752Z,19.13
2019-02-14T21:47:53.900Z,23.17
2019-02-14T21:50:24.280Z,18.20
2019-02-14T21:52:55.876Z,18.83
2019-02-14T21:55:25.033Z,19.60
2019-02-14T21:57:54.199Z,22.13
2019-02-14T22:00:23.375Z,20.20
2019-02-14T22:02:53.597Z,25.00
2019-02-14T22:05:26.657Z,19.57
2019-02-14T22:08:09.182Z,15.57
2019-02-14T22:10:41.177Z,19.90
2019-02-14T22:13:19.691Z,21.37
2019-02-14T22:15:49.907Z,14.93
2019-02-14T22:18:20.113Z,15.17
2019-02-14T22:20:53.974Z,18.83
2019-02-14T22:23:23.548Z,14.70
2019-02-14T22:25:52.702Z,12.77
2019-02-14T22:28:22.044Z,17.60
2019-02-14T22:30:57.188Z,15.33
2019-02-14T22:33:29.896Z,21.00
2019-02-14T22:35:59.033Z,13.67
2019-02-14T22:38:29.430Z,15.57
2019-02-14T22:41:04.094Z,15.47
2019-02-14T22:43:35.246Z,16.13
2019-02-14T22:46:05.591Z,18.00
2019-02-14T22:48:39.028Z,18.17
2019-02-14T22:51:11.241Z,16.73
2019-02-14T22:53:40.457Z,20.73
2019-02-14T22:56:11.322Z,22.20
2019-02-14T22:58:43.615Z,15.33
2019-02-14T23:01:14.404Z,15.57
2019-02-14T23:03:43.977Z,15.90
2019-02-14T23:06:16.799Z,19.93
2019-02-14T23:08:45.840Z,19.63
2019-02-14T23:11:15.697Z,23.33
2019-02-14T23:13:44.829Z,14.47
2019-02-14T23:16:13.918Z,15.30
2019-02-14T23:18:42.978Z,18.17
2019-02-14T23:21:12.099Z,20.60
2019-02-14T23:23:41.415Z,16.47
2019-02-14T23:26:10.443Z,15.23
2019-02-14T23:28:40.653Z,16.40
2019-02-14T23:31:16.203Z,17.50
2019-02-14T23:33:48.385Z,13.40
2019-02-14T23:36:17.397Z,13.93
2019-02-14T23:38:46.457Z,13.07
2019-02-14T23:41:15.790Z,12.37
2019-02-14T23:43:46.013Z,14.23
2019-02-14T23:46:16.207Z,15.20
2019-02-14T23:48:46.840Z,15.50
2019-02-14T23:51:15.896Z,13.07
2019-02-14T23:53:44.902Z,16.27
2019-02-14T23:56:14.819Z,16.50
2019-02-14T23:58:48.502Z,15.50
